sensor_id;sensor_type;location;lat;lon;timestamp;pressure;altitude;pressure_sealevel;temperature;humidity
4598;BME280;62772;48.646;8.906;2024-03-08T00:02:17;96089.16;;;0.51;100.00
4598;BME280;62772;48.646;8.906;2024-03-08T00:07:17;96086.25;;;0.21;100.00
4598;BME280;62772;48.646;8.906;2024-03-08T00:12:18;96081.00;;;-0.07;100.00
4598;BME280;62772;48.646;8.906;2024-03-08T00:17:18;96083.50;;;0.05;100.00
4598;BME280;62772;48.646;8.906;2024-03-08T00:22:19;96088.16;;;-0.02;100.00
4598;BME280;62772;48.646;8.906;2024-03-08T00:27:20;96082.16;;;-0.47;100.00
4598;BME280;62772;48.646;8.906;2024-03-08T00:32:21;96082.59;;;-0.55;100.00
4598;BME280;62772;48.646;8.906;2024-03-08T00:37:24;96078.84;;;-0.81;100.00
4598;BME280;62772;48.646;8.906;2024-03-08T00:42:27;96074.00;;;-0.01;100.00
4598;BME280;62772;48.646;8.906;2024-03-08T00:47:28;96069.03;;;-0.25;100.00
4598;BME280;62772;48.646;8.906;2024-03-08T00:52:28;96066.72;;;-0.43;100.00
4598;BME280;62772;48.646;8.906;2024-03-08T00:57:29;96051.66;;;-0.53;100.00
4598;BME280;62772;48.646;8.906;2024-03-08T01:02:30;96050.00;;;-0.81;100.00
4598;BME280;62772;48.646;8.906;2024-03-08T01:07:30;96036.81;;;-1.08;100.00
4598;BME280;62772;48.646;8.906;2024-03-08T01:12:31;96043.44;;;-0.84;100.00
4598;BME280;62772;48.646;8.906;2024-03-08T01:17:31;96037.16;;;-1.22;100.00
4598;BME280;62772;48.646;8.906;2024-03-08T01:22:31;96031.00;;;-0.94;100.00
4598;BME280;62772;48.646;8.906;2024-03-08T01:27:32;96032.44;;;-1.03;100.00
4598;BME280;62772;48.646;8.906;2024-03-08T01:32:32;96028.13;;;-1.31;100.00
4598;BME280;62772;48.646;8.906;2024-03-08T01:37:33;96022.16;;;-1.26;100.00
4598;BME280;62772;48.646;8.906;2024-03-08T01:42:34;96009.06;;;-1.26;100.00
4598;BME280;62772;48.646;8.906;2024-03-08T01:47:37;96005.53;;;-1.15;100.00
4598;BME280;62772;48.646;8.906;2024-03-08T01:52:38;95996.38;;;-1.35;100.00
4598;BME280;62772;48.646;8.906;2024-03-08T01:57:38;95989.47;;;-1.41;100.00
4598;BME280;62772;48.646;8.906;2024-03-08T02:02:42;95980.91;;;-1.36;100.00
4598;BME280;62772;48.646;8.906;2024-03-08T02:07:42;95962.59;;;-1.53;100.00
4598;BME280;62772;48.646;8.906;2024-03-08T02:12:44;95957.47;;;-1.65;100.00
4598;BME280;62772;48.646;8.906;2024-03-08T02:17:46;95943.81;;;-1.28;100.00
4598;BME280;62772;48.646;8.906;2024-03-08T02:22:47;95947.66;;;-1.53;100.00
4598;BME280;62772;48.646;8.906;2024-03-08T02:27:47;95935.41;;;-1.86;100.00
4598;BME280;62772;48.646;8.906;2024-03-08T02:32:48;95938.84;;;-2.03;100.00
4598;BME280;62772;48.646;8.906;2024-03-08T02:37:48;95937.13;;;-1.97;100.00
4598;BME280;62772;48.646;8.906;2024-03-08T02:42:49;95931.59;;;-1.61;100.00
4598;BME280;62772;48.646;8.906;2024-03-08T02:47:49;95933.72;;;-2.14;100.00
4598;BME280;62772;48.646;8.906;2024-03-08T02:52:50;95924.44;;;-2.22;100.00
4598;BME280;62772;48.646;8.906;2024-03-08T02:57:51;95922.34;;;-2.20;100.00
4598;BME280;62772;48.646;8.906;2024-03-08T03:02:51;95924.13;;;-2.26;100.00
4598;BME280;62772;48.646;8.906;2024-03-08T03:07:55;95903.75;;;-2.07;100.00
4598;BME280;62772;48.646;8.906;2024-03-08T03:12:56;95914.69;;;-1.71;100.00
4598;BME280;62772;48.646;8.906;2024-03-08T03:17:56;95908.81;;;-2.00;100.00
4598;BME280;62772;48.646;8.906;2024-03-08T03:22:57;95897.69;;;-2.07;100.00
4598;BME280;62772;48.646;8.906;2024-03-08T03:27:57;95903.50;;;-2.22;100.00
4598;BME280;62772;48.646;8.906;2024-03-08T03:32:59;95895.72;;;-2.51;100.00
4598;BME280;62772;48.646;8.906;2024-03-08T03:38:00;95888.66;;;-2.50;100.00
4598;BME280;62772;48.646;8.906;2024-03-08T03:43:07;95891.94;;;-2.43;100.00
4598;BME280;62772;48.646;8.906;2024-03-08T03:48:07;95887.16;;;-2.63;100.00
4598;BME280;62772;48.646;8.906;2024-03-08T03:53:11;95880.22;;;-2.86;100.00
4598;BME280;62772;48.646;8.906;2024-03-08T03:58:13;95876.19;;;-2.94;100.00
4598;BME280;62772;48.646;8.906;2024-03-08T04:03:14;95882.78;;;-3.32;100.00
4598;BME280;62772;48.646;8.906;2024-03-08T04:08:14;95869.69;;;-3.20;100.00
4598;BME280;62772;48.646;8.906;2024-03-08T04:13:15;95866.19;;;-3.26;100.00
4598;BME280;62772;48.646;8.906;2024-03-08T04:18:16;95865.00;;;-3.18;100.00
4598;BME280;62772;48.646;8.906;2024-03-08T04:23:16;95857.41;;;-3.20;100.00
4598;BME280;62772;48.646;8.906;2024-03-08T04:28:17;95865.38;;;-3.26;100.00
4598;BME280;62772;48.646;8.906;2024-03-08T04:33:18;95861.44;;;-3.29;100.00
4598;BME280;62772;48.646;8.906;2024-03-08T04:38:18;95855.41;;;-3.30;100.00
4598;BME280;62772;48.646;8.906;2024-03-08T04:43:19;95857.22;;;-3.30;100.00
4598;BME280;62772;48.646;8.906;2024-03-08T04:48:20;95846.31;;;-3.27;100.00
4598;BME280;62772;48.646;8.906;2024-03-08T04:53:21;95852.47;;;-3.33;100.00
4598;BME280;62772;48.646;8.906;2024-03-08T04:58:21;95842.91;;;-2.99;100.00
4598;BME280;62772;48.646;8.906;2024-03-08T05:03:22;95843.19;;;-3.41;100.00
4598;BME280;62772;48.646;8.906;2024-03-08T05:08:26;95835.56;;;-3.14;100.00
4598;BME280;62772;48.646;8.906;2024-03-08T05:13:27;95838.19;;;-3.42;100.00
4598;BME280;62772;48.646;8.906;2024-03-08T05:18:27;95837.19;;;-3.41;100.00
4598;BME280;62772;48.646;8.906;2024-03-08T05:23:32;95831.28;;;-3.49;100.00
4598;BME280;62772;48.646;8.906;2024-03-08T05:28:32;95837.28;;;-3.77;100.00
4598;BME280;62772;48.646;8.906;2024-03-08T05:33:33;95839.22;;;-3.84;100.00
4598;BME280;62772;48.646;8.906;2024-03-08T05:38:37;95827.31;;;-3.80;100.00
4598;BME280;62772;48.646;8.906;2024-03-08T05:43:38;95829.69;;;-3.78;100.00
4598;BME280;62772;48.646;8.906;2024-03-08T05:48:39;95821.94;;;-3.73;100.00
4598;BME280;62772;48.646;8.906;2024-03-08T05:53:39;95830.56;;;-3.73;100.00
4598;BME280;62772;48.646;8.906;2024-03-08T05:58:39;95822.66;;;-3.49;100.00
4598;BME280;62772;48.646;8.906;2024-03-08T06:03:40;95828.44;;;-3.18;100.00
4598;BME280;62772;48.646;8.906;2024-03-08T06:08:45;95831.19;;;-2.96;100.00
4598;BME280;62772;48.646;8.906;2024-03-08T06:13:46;95819.44;;;-3.11;100.00
4598;BME280;62772;48.646;8.906;2024-03-08T06:18:46;95819.88;;;-3.02;100.00
4598;BME280;62772;48.646;8.906;2024-03-08T06:23:47;95819.09;;;-2.85;100.00
4598;BME280;62772;48.646;8.906;2024-03-08T06:28:48;95822.03;;;-2.48;100.00
4598;BME280;62772;48.646;8.906;2024-03-08T06:33:49;95828.28;;;-2.32;100.00
4598;BME280;62772;48.646;8.906;2024-03-08T06:38:50;95821.22;;;-2.14;100.00
4598;BME280;62772;48.646;8.906;2024-03-08T06:43:51;95821.34;;;-1.82;100.00
4598;BME280;62772;48.646;8.906;2024-03-08T06:48:58;95813.41;;;-1.70;100.00
4598;BME280;62772;48.646;8.906;2024-03-08T06:53:58;95819.22;;;-1.41;100.00
4598;BME280;62772;48.646;8.906;2024-03-08T06:58:59;95816.38;;;-1.12;100.00
4598;BME280;62772;48.646;8.906;2024-03-08T07:04:00;95812.34;;;-1.20;100.00
4598;BME280;62772;48.646;8.906;2024-03-08T07:09:02;95819.38;;;-0.98;100.00
4598;BME280;62772;48.646;8.906;2024-03-08T07:14:03;95810.22;;;-0.96;100.00
4598;BME280;62772;48.646;8.906;2024-03-08T07:19:05;95811.28;;;-0.97;100.00
4598;BME280;62772;48.646;8.906;2024-03-08T07:24:06;95798.50;;;-0.88;100.00
4598;BME280;62772;48.646;8.906;2024-03-08T07:29:22;95803.75;;;-0.88;100.00
4598;BME280;62772;48.646;8.906;2024-03-08T07:34:23;95810.88;;;-0.83;100.00
4598;BME280;62772;48.646;8.906;2024-03-08T07:39:23;95803.59;;;-0.76;100.00
4598;BME280;62772;48.646;8.906;2024-03-08T07:44:24;95804.41;;;-0.70;100.00
4598;BME280;62772;48.646;8.906;2024-03-08T07:49:24;95796.31;;;-0.64;100.00
4598;BME280;62772;48.646;8.906;2024-03-08T07:54:25;95794.56;;;-0.53;100.00
4598;BME280;62772;48.646;8.906;2024-03-08T07:59:26;95795.91;;;-0.50;100.00
4598;BME280;62772;48.646;8.906;2024-03-08T08:04:26;95787.59;;;-0.37;100.00
4598;BME280;62772;48.646;8.906;2024-03-08T08:09:27;95780.31;;;-0.30;100.00
4598;BME280;62772;48.646;8.906;2024-03-08T08:14:34;95776.94;;;-0.25;100.00
4598;BME280;62772;48.646;8.906;2024-03-08T08:19:35;95782.97;;;-0.20;100.00
4598;BME280;62772;48.646;8.906;2024-03-08T08:24:35;95771.75;;;-0.10;100.00
4598;BME280;62772;48.646;8.906;2024-03-08T08:29:37;95776.00;;;0.02;100.00
4598;BME280;62772;48.646;8.906;2024-03-08T08:34:37;95778.41;;;0.08;100.00
4598;BME280;62772;48.646;8.906;2024-03-08T08:39:37;95777.34;;;0.04;100.00
4598;BME280;62772;48.646;8.906;2024-03-08T08:44:38;95768.97;;;0.17;100.00
4598;BME280;62772;48.646;8.906;2024-03-08T08:49:38;95767.19;;;0.28;100.00
4598;BME280;62772;48.646;8.906;2024-03-08T08:54:39;95771.94;;;0.36;100.00
4598;BME280;62772;48.646;8.906;2024-03-08T08:59:39;95761.47;;;0.47;100.00
4598;BME280;62772;48.646;8.906;2024-03-08T09:04:40;95753.59;;;0.57;100.00
4598;BME280;62772;48.646;8.906;2024-03-08T09:09:42;95757.56;;;0.60;100.00
4598;BME280;62772;48.646;8.906;2024-03-08T09:14:42;95749.16;;;0.63;100.00
4598;BME280;62772;48.646;8.906;2024-03-08T09:19:43;95746.53;;;0.73;100.00
4598;BME280;62772;48.646;8.906;2024-03-08T09:24:43;95749.97;;;0.89;100.00
4598;BME280;62772;48.646;8.906;2024-03-08T09:29:44;95742.66;;;0.96;100.00
4598;BME280;62772;48.646;8.906;2024-03-08T09:34:44;95742.13;;;1.04;100.00
4598;BME280;62772;48.646;8.906;2024-03-08T09:39:45;95738.44;;;1.05;100.00
4598;BME280;62772;48.646;8.906;2024-03-08T09:44:46;95747.63;;;1.08;100.00
4598;BME280;62772;48.646;8.906;2024-03-08T09:49:47;95736.59;;;1.26;100.00
4598;BME280;62772;48.646;8.906;2024-03-08T09:54:47;95731.59;;;1.30;100.00
4598;BME280;62772;48.646;8.906;2024-03-08T09:59:48;95732.38;;;1.36;100.00
4598;BME280;62772;48.646;8.906;2024-03-08T10:04:48;95728.97;;;1.40;100.00
4598;BME280;62772;48.646;8.906;2024-03-08T10:09:51;95721.84;;;1.46;100.00
4598;BME280;62772;48.646;8.906;2024-03-08T10:14:55;95720.50;;;1.59;100.00
4598;BME280;62772;48.646;8.906;2024-03-08T10:19:55;95709.16;;;1.63;100.00
4598;BME280;62772;48.646;8.906;2024-03-08T10:24:56;95702.06;;;1.64;100.00
4598;BME280;62772;48.646;8.906;2024-03-08T10:29:56;95703.34;;;1.72;100.00
4598;BME280;62772;48.646;8.906;2024-03-08T10:34:57;95696.75;;;1.79;100.00
4598;BME280;62772;48.646;8.906;2024-03-08T10:40:04;95696.19;;;1.88;100.00
4598;BME280;62772;48.646;8.906;2024-03-08T10:45:15;95682.22;;;1.92;100.00
4598;BME280;62772;48.646;8.906;2024-03-08T10:50:22;95675.09;;;1.98;100.00
4598;BME280;62772;48.646;8.906;2024-03-08T10:55:24;95682.44;;;2.06;100.00
4598;BME280;62772;48.646;8.906;2024-03-08T11:00:26;95685.22;;;2.25;100.00
4598;BME280;62772;48.646;8.906;2024-03-08T11:10:51;95675.91;;;2.43;100.00
4598;BME280;62772;48.646;8.906;2024-03-08T11:15:54;95668.53;;;2.45;100.00
4598;BME280;62772;48.646;8.906;2024-03-08T11:20:54;95671.31;;;2.59;100.00
4598;BME280;62772;48.646;8.906;2024-03-08T11:25:55;95661.22;;;2.71;100.00
4598;BME280;62772;48.646;8.906;2024-03-08T11:36:24;95646.13;;;2.82;100.00
4598;BME280;62772;48.646;8.906;2024-03-08T11:41:24;95643.53;;;3.06;100.00
4598;BME280;62772;48.646;8.906;2024-03-08T11:46:25;95638.19;;;3.17;100.00
4598;BME280;62772;48.646;8.906;2024-03-08T11:51:28;95639.88;;;3.32;100.00
4598;BME280;62772;48.646;8.906;2024-03-08T11:56:30;95624.78;;;3.37;100.00
4598;BME280;62772;48.646;8.906;2024-03-08T12:01:32;95613.06;;;3.43;100.00
4598;BME280;62772;48.646;8.906;2024-03-08T12:06:40;95605.84;;;3.54;100.00
4598;BME280;62772;48.646;8.906;2024-03-08T12:11:41;95602.34;;;3.59;100.00
4598;BME280;62772;48.646;8.906;2024-03-08T12:16:43;95600.19;;;3.61;100.00
4598;BME280;62772;48.646;8.906;2024-03-08T12:21:43;95591.88;;;3.73;100.00
4598;BME280;62772;48.646;8.906;2024-03-08T12:26:48;95583.34;;;3.81;100.00
4598;BME280;62772;48.646;8.906;2024-03-08T12:31:59;95578.63;;;3.97;100.00
4598;BME280;62772;48.646;8.906;2024-03-08T12:37:01;95572.63;;;4.10;100.00
4598;BME280;62772;48.646;8.906;2024-03-08T12:42:01;95561.44;;;4.18;100.00
4598;BME280;62772;48.646;8.906;2024-03-08T12:47:03;95545.63;;;4.13;100.00
4598;BME280;62772;48.646;8.906;2024-03-08T12:52:09;95537.97;;;4.31;100.00
4598;BME280;62772;48.646;8.906;2024-03-08T12:57:10;95535.19;;;4.41;100.00
4598;BME280;62772;48.646;8.906;2024-03-08T13:02:11;95522.44;;;4.43;100.00
4598;BME280;62772;48.646;8.906;2024-03-08T13:07:11;95516.63;;;4.60;100.00
4598;BME280;62772;48.646;8.906;2024-03-08T13:12:11;95505.66;;;4.67;100.00
4598;BME280;62772;48.646;8.906;2024-03-08T13:17:13;95494.31;;;4.80;100.00
4598;BME280;62772;48.646;8.906;2024-03-08T13:22:14;95496.97;;;4.94;100.00
4598;BME280;62772;48.646;8.906;2024-03-08T13:27:16;95478.25;;;4.90;100.00
4598;BME280;62772;48.646;8.906;2024-03-08T13:32:19;95476.19;;;5.15;100.00
4598;BME280;62772;48.646;8.906;2024-03-08T13:37:20;95467.56;;;5.23;100.00
4598;BME280;62772;48.646;8.906;2024-03-08T13:42:21;95462.75;;;5.12;100.00
4598;BME280;62772;48.646;8.906;2024-03-08T13:47:23;95452.06;;;5.31;100.00
4598;BME280;62772;48.646;8.906;2024-03-08T13:52:24;95450.47;;;5.30;100.00
4598;BME280;62772;48.646;8.906;2024-03-08T13:57:25;95453.13;;;5.30;100.00
4598;BME280;62772;48.646;8.906;2024-03-08T14:02:27;95453.09;;;5.43;100.00
4598;BME280;62772;48.646;8.906;2024-03-08T14:07:31;95439.84;;;5.57;100.00
4598;BME280;62772;48.646;8.906;2024-03-08T14:12:33;95431.41;;;5.55;100.00
4598;BME280;62772;48.646;8.906;2024-03-08T14:17:35;95439.53;;;5.59;100.00
4598;BME280;62772;48.646;8.906;2024-03-08T14:22:36;95432.66;;;5.58;100.00
4598;BME280;62772;48.646;8.906;2024-03-08T14:27:37;95420.72;;;5.60;100.00
4598;BME280;62772;48.646;8.906;2024-03-08T14:32:37;95408.72;;;5.63;100.00
4598;BME280;62772;48.646;8.906;2024-03-08T14:37:39;95401.03;;;5.75;100.00
4598;BME280;62772;48.646;8.906;2024-03-08T14:42:41;95397.00;;;5.78;100.00
4598;BME280;62772;48.646;8.906;2024-03-08T14:47:43;95383.44;;;5.79;100.00
4598;BME280;62772;48.646;8.906;2024-03-08T14:52:44;95388.31;;;5.63;100.00
4598;BME280;62772;48.646;8.906;2024-03-08T14:57:45;95382.00;;;5.73;100.00
4598;BME280;62772;48.646;8.906;2024-03-08T15:02:45;95379.38;;;5.82;100.00
4598;BME280;62772;48.646;8.906;2024-03-08T15:07:47;95376.44;;;5.84;100.00
4598;BME280;62772;48.646;8.906;2024-03-08T15:12:48;95362.72;;;5.81;100.00
4598;BME280;62772;48.646;8.906;2024-03-08T15:17:49;95361.81;;;5.86;100.00
4598;BME280;62772;48.646;8.906;2024-03-08T15:22:49;95352.00;;;5.87;100.00
4598;BME280;62772;48.646;8.906;2024-03-08T15:27:51;95349.31;;;5.78;100.00
4598;BME280;62772;48.646;8.906;2024-03-08T15:32:52;95347.59;;;5.82;100.00
4598;BME280;62772;48.646;8.906;2024-03-08T15:37:57;95337.66;;;5.88;100.00
4598;BME280;62772;48.646;8.906;2024-03-08T15:42:58;95332.97;;;5.85;100.00
4598;BME280;62772;48.646;8.906;2024-03-08T15:47:59;95333.44;;;5.87;100.00
4598;BME280;62772;48.646;8.906;2024-03-08T15:53:05;95324.06;;;5.80;100.00
4598;BME280;62772;48.646;8.906;2024-03-08T15:58:06;95317.69;;;5.81;100.00
4598;BME280;62772;48.646;8.906;2024-03-08T16:03:06;95307.84;;;5.82;100.00
4598;BME280;62772;48.646;8.906;2024-03-08T16:08:08;95304.91;;;5.84;100.00
4598;BME280;62772;48.646;8.906;2024-03-08T16:13:15;95308.97;;;5.81;100.00
4598;BME280;62772;48.646;8.906;2024-03-08T16:18:18;95304.25;;;5.78;100.00
4598;BME280;62772;48.646;8.906;2024-03-08T16:23:23;95296.78;;;5.80;100.00
4598;BME280;62772;48.646;8.906;2024-03-08T16:28:24;95292.25;;;5.80;100.00
4598;BME280;62772;48.646;8.906;2024-03-08T16:33:39;95294.59;;;5.82;100.00
4598;BME280;62772;48.646;8.906;2024-03-08T16:38:39;95283.53;;;5.80;100.00
4598;BME280;62772;48.646;8.906;2024-03-08T16:43:46;95277.59;;;5.74;100.00
4598;BME280;62772;48.646;8.906;2024-03-08T16:48:47;95274.25;;;5.60;100.00
4598;BME280;62772;48.646;8.906;2024-03-08T16:53:49;95274.56;;;5.58;100.00
4598;BME280;62772;48.646;8.906;2024-03-08T16:58:51;95274.50;;;5.04;100.00
4598;BME280;62772;48.646;8.906;2024-03-08T17:03:51;95266.94;;;4.61;100.00
4598;BME280;62772;48.646;8.906;2024-03-08T17:08:52;95260.41;;;4.59;100.00
4598;BME280;62772;48.646;8.906;2024-03-08T17:13:54;95261.28;;;4.54;100.00
4598;BME280;62772;48.646;8.906;2024-03-08T17:18:54;95246.34;;;4.72;100.00
4598;BME280;62772;48.646;8.906;2024-03-08T17:23:55;95244.00;;;4.70;100.00
4598;BME280;62772;48.646;8.906;2024-03-08T17:28:56;95251.44;;;4.18;100.00
4598;BME280;62772;48.646;8.906;2024-03-08T17:33:58;95246.44;;;3.89;100.00
4598;BME280;62772;48.646;8.906;2024-03-08T17:38:58;95234.78;;;3.76;100.00
4598;BME280;62772;48.646;8.906;2024-03-08T17:43:59;95230.19;;;3.81;100.00
4598;BME280;62772;48.646;8.906;2024-03-08T17:48:59;95229.41;;;3.81;100.00
4598;BME280;62772;48.646;8.906;2024-03-08T17:54:00;95228.53;;;3.72;100.00
4598;BME280;62772;48.646;8.906;2024-03-08T17:59:02;95211.41;;;3.69;100.00
4598;BME280;62772;48.646;8.906;2024-03-08T18:04:03;95219.66;;;3.35;100.00
4598;BME280;62772;48.646;8.906;2024-03-08T18:09:07;95233.38;;;2.85;100.00
4598;BME280;62772;48.646;8.906;2024-03-08T18:14:11;95237.38;;;2.44;100.00
4598;BME280;62772;48.646;8.906;2024-03-08T18:19:14;95234.44;;;2.27;100.00
4598;BME280;62772;48.646;8.906;2024-03-08T18:24:19;95232.44;;;2.18;100.00
4598;BME280;62772;48.646;8.906;2024-03-08T18:29:20;95230.78;;;2.23;100.00
4598;BME280;62772;48.646;8.906;2024-03-08T18:34:22;95226.22;;;2.09;100.00
4598;BME280;62772;48.646;8.906;2024-03-08T18:39:22;95234.53;;;1.97;100.00
4598;BME280;62772;48.646;8.906;2024-03-08T18:44:27;95221.88;;;1.75;100.00
4598;BME280;62772;48.646;8.906;2024-03-08T18:49:27;95224.00;;;1.97;100.00
4598;BME280;62772;48.646;8.906;2024-03-08T18:54:27;95214.63;;;1.62;100.00
4598;BME280;62772;48.646;8.906;2024-03-08T18:59:28;95222.50;;;1.38;100.00
4598;BME280;62772;48.646;8.906;2024-03-08T19:04:30;95222.50;;;1.38;100.00
4598;BME280;62772;48.646;8.906;2024-03-08T19:09:31;95224.19;;;0.94;100.00
4598;BME280;62772;48.646;8.906;2024-03-08T19:14:31;95225.88;;;0.80;100.00
4598;BME280;62772;48.646;8.906;2024-03-08T19:19:33;95218.22;;;0.83;100.00
4598;BME280;62772;48.646;8.906;2024-03-08T19:24:34;95215.19;;;0.66;100.00
4598;BME280;62772;48.646;8.906;2024-03-08T19:29:35;95216.53;;;0.58;100.00
4598;BME280;62772;48.646;8.906;2024-03-08T19:34:35;95216.09;;;0.51;100.00
4598;BME280;62772;48.646;8.906;2024-03-08T19:39:36;95220.34;;;0.42;100.00
4598;BME280;62772;48.646;8.906;2024-03-08T19:44:36;95227.59;;;0.55;100.00
4598;BME280;62772;48.646;8.906;2024-03-08T19:49:37;95223.66;;;0.92;100.00
4598;BME280;62772;48.646;8.906;2024-03-08T19:54:37;95221.50;;;0.65;100.00
4598;BME280;62772;48.646;8.906;2024-03-08T19:59:38;95224.81;;;0.36;100.00
4598;BME280;62772;48.646;8.906;2024-03-08T20:04:45;95216.00;;;0.16;100.00
4598;BME280;62772;48.646;8.906;2024-03-08T20:09:46;95214.91;;;0.17;100.00
4598;BME280;62772;48.646;8.906;2024-03-08T20:14:47;95210.41;;;-0.27;100.00
4598;BME280;62772;48.646;8.906;2024-03-08T20:19:48;95201.13;;;-0.09;100.00
4598;BME280;62772;48.646;8.906;2024-03-08T20:24:49;95208.09;;;-0.49;100.00
4598;BME280;62772;48.646;8.906;2024-03-08T20:29:50;95206.28;;;-0.69;100.00
4598;BME280;62772;48.646;8.906;2024-03-08T20:34:50;95208.69;;;0.03;100.00
4598;BME280;62772;48.646;8.906;2024-03-08T20:39:51;95213.38;;;0.16;100.00
4598;BME280;62772;48.646;8.906;2024-03-08T20:44:52;95212.75;;;-0.25;100.00
4598;BME280;62772;48.646;8.906;2024-03-08T20:49:52;95207.59;;;-0.61;100.00
4598;BME280;62772;48.646;8.906;2024-03-08T20:54:53;95208.41;;;-0.81;100.00
4598;BME280;62772;48.646;8.906;2024-03-08T20:59:53;95213.66;;;-0.86;100.00
4598;BME280;62772;48.646;8.906;2024-03-08T21:04:54;95197.66;;;-0.69;100.00
4598;BME280;62772;48.646;8.906;2024-03-08T21:09:54;95202.28;;;-0.35;100.00
4598;BME280;62772;48.646;8.906;2024-03-08T21:14:55;95204.16;;;-0.51;100.00
4598;BME280;62772;48.646;8.906;2024-03-08T21:19:55;95207.84;;;-0.52;100.00
4598;BME280;62772;48.646;8.906;2024-03-08T21:24:56;95199.41;;;-0.39;100.00
4598;BME280;62772;48.646;8.906;2024-03-08T21:29:57;95193.31;;;-0.24;100.00
4598;BME280;62772;48.646;8.906;2024-03-08T21:34:57;95181.53;;;-0.27;100.00
4598;BME280;62772;48.646;8.906;2024-03-08T21:39:58;95187.47;;;-0.06;100.00
4598;BME280;62772;48.646;8.906;2024-03-08T21:45:02;95171.19;;;-0.73;100.00
4598;BME280;62772;48.646;8.906;2024-03-08T21:50:04;95173.53;;;-0.77;100.00
4598;BME280;62772;48.646;8.906;2024-03-08T21:55:05;95166.38;;;-0.45;100.00
4598;BME280;62772;48.646;8.906;2024-03-08T22:00:06;95168.53;;;-0.68;100.00
4598;BME280;62772;48.646;8.906;2024-03-08T22:05:15;95168.28;;;-0.77;100.00
4598;BME280;62772;48.646;8.906;2024-03-08T22:10:20;95155.97;;;-0.81;100.00
4598;BME280;62772;48.646;8.906;2024-03-08T22:15:23;95152.06;;;-0.99;100.00
4598;BME280;62772;48.646;8.906;2024-03-08T22:20:23;95150.63;;;-0.35;100.00
4598;BME280;62772;48.646;8.906;2024-03-08T22:25:31;95147.41;;;-0.22;100.00
4598;BME280;62772;48.646;8.906;2024-03-08T22:30:32;95151.22;;;-0.59;100.00
4598;BME280;62772;48.646;8.906;2024-03-08T22:35:32;95151.47;;;-0.55;100.00
4598;BME280;62772;48.646;8.906;2024-03-08T22:40:33;95155.47;;;-0.99;100.00
4598;BME280;62772;48.646;8.906;2024-03-08T22:45:34;95161.47;;;-0.73;100.00
4598;BME280;62772;48.646;8.906;2024-03-08T22:50:34;95159.13;;;-0.84;100.00
4598;BME280;62772;48.646;8.906;2024-03-08T22:55:36;95163.00;;;-0.56;100.00
4598;BME280;62772;48.646;8.906;2024-03-08T23:00:37;95156.94;;;-0.41;100.00
4598;BME280;62772;48.646;8.906;2024-03-08T23:05:37;95176.19;;;-0.97;100.00
4598;BME280;62772;48.646;8.906;2024-03-08T23:10:40;95175.94;;;-1.32;100.00
4598;BME280;62772;48.646;8.906;2024-03-08T23:15:42;95174.50;;;-0.47;100.00
4598;BME280;62772;48.646;8.906;2024-03-08T23:20:43;95165.94;;;-0.78;100.00
4598;BME280;62772;48.646;8.906;2024-03-08T23:25:44;95169.94;;;-0.15;100.00
4598;BME280;62772;48.646;8.906;2024-03-08T23:30:45;95176.00;;;-0.20;100.00
4598;BME280;62772;48.646;8.906;2024-03-08T23:35:45;95184.75;;;-0.61;100.00
4598;BME280;62772;48.646;8.906;2024-03-08T23:40:46;95176.16;;;-0.77;100.00
4598;BME280;62772;48.646;8.906;2024-03-08T23:45:47;95171.94;;;-0.57;100.00
4598;BME280;62772;48.646;8.906;2024-03-08T23:50:48;95186.53;;;-0.35;100.00
4598;BME280;62772;48.646;8.906;2024-03-08T23:55:49;95184.59;;;-0.04;100.00
